Time;durP1;ratioP1;P1;durP2;ratioP2;P2;SDS_P1;SDS_P2;PMS_P1;PMS_P2;Temp;Humidity;BMP_temperature;BMP_pressure;BME280_temperature;BME280_humidity;BME280_pressure;Samples;Min_cycle;Max_cycle;Signal;HPM_P1;HPM_P2
2022/03/25 00:00:40;;;;;;;22.20;20.03;;;;;;;8.77;52.62;99617.56;4979480;28;102895;-62
2022/03/25 00:03:09;;;;;;;22.87;20.57;;;;;;;8.47;52.72;99610.28;4978000;28;103834;-63
2022/03/25 00:05:37;;;;;;;22.10;19.80;;;;;;;8.81;52.57;99613.84;4977889;28;103676;-64
2022/03/25 00:08:06;;;;;;;21.02;18.83;;;;;;;8.95;52.43;99619.28;4980799;28;103199;-62
2022/03/25 00:10:34;;;;;;;20.95;18.95;;;;;;;8.98;52.09;99619.94;4980778;28;102607;-62
2022/03/25 00:13:03;;;;;;;22.73;20.23;;;;;;;8.78;52.58;99616.66;4979059;28;104294;-62
2022/03/25 00:15:32;;;;;;;20.25;18.27;;;;;;;8.73;53.20;99617.72;4977143;28;103804;-62
2022/03/25 00:18:00;;;;;;;18.85;17.05;;;;;;;8.95;52.47;99621.91;4982188;28;103112;-63
2022/03/25 00:20:29;;;;;;;19.40;17.60;;;;;;;9.04;52.51;99610.91;4980473;28;102733;-63
2022/03/25 00:22:57;;;;;;;20.38;18.52;;;;;;;9.06;52.61;99616.94;4981725;28;103932;-64
2022/03/25 00:25:25;;;;;;;20.70;18.70;;;;;;;9.09;52.46;99611.50;4977821;28;103902;-63
2022/03/25 00:27:53;;;;;;;21.33;19.23;;;;;;;9.00;52.73;99614.63;4979576;28;104063;-62
2022/03/25 00:30:24;;;;;;;21.60;19.52;;;;;;;8.91;52.70;99613.31;4977130;28;103918;-63
2022/03/25 00:32:56;;;;;;;23.73;21.42;;;;;;;8.65;53.40;99611.13;4979635;28;103680;-63
2022/03/25 00:35:24;;;;;;;24.27;21.77;;;;;;;7.96;55.17;99610.97;4977916;28;103273;-63
2022/03/25 00:37:52;;;;;;;24.35;21.85;;;;;;;8.12;54.83;99611.09;4979196;28;103208;-63
2022/03/25 00:40:20;;;;;;;18.15;16.50;;;;;;;8.58;53.74;99607.09;4977230;28;102663;-63
2022/03/25 00:42:48;;;;;;;20.17;18.23;;;;;;;8.67;53.28;99610.13;4981525;28;102591;-63
2022/03/25 00:45:16;;;;;;;20.03;18.13;;;;;;;8.68;53.49;99603.94;4978338;28;104347;-63
2022/03/25 00:47:44;;;;;;;22.40;20.13;;;;;;;8.45;54.33;99598.94;4977581;28;103210;-63
2022/03/25 00:50:14;;;;;;;22.92;20.63;;;;;;;8.38;54.89;99597.56;4976720;28;102751;-63
2022/03/25 00:52:47;;;;;;;22.43;20.13;;;;;;;8.36;54.96;99593.31;4978465;28;104360;-63
2022/03/25 00:55:15;;;;;;;18.35;16.65;;;;;;;8.50;54.98;99604.00;4976429;28;103935;-63
2022/03/25 00:57:43;;;;;;;21.27;19.27;;;;;;;8.63;54.18;99591.91;4978150;28;104094;-63
2022/03/25 01:00:14;;;;;;;21.73;19.73;;;;;;;8.48;54.42;99588.25;4976041;28;103116;-63
2022/03/25 01:02:42;;;;;;;24.05;21.63;;;;;;;8.21;54.78;99588.75;4976910;28;102676;-63
2022/03/25 01:05:10;;;;;;;23.10;20.90;;;;;;;7.94;55.96;99591.75;4979359;28;104244;-63
2022/03/25 01:07:39;;;;;;;25.42;22.95;;;;;;;7.35;57.16;99591.94;4979199;28;103240;-63
2022/03/25 01:10:08;;;;;;;23.83;21.33;;;;;;;7.37;57.79;99592.72;4981304;28;102936;-63
2022/03/25 01:12:37;;;;;;;24.10;21.60;;;;;;;7.15;58.10;99594.59;4971056;28;102739;-61
2022/03/25 01:15:06;;;;;;;23.40;21.10;;;;;;;7.05;59.12;99598.53;4978790;28;104298;-62
2022/03/25 01:17:35;;;;;;;23.40;21.00;;;;;;;7.01;59.49;99591.72;4978089;28;104121;-63
2022/03/25 01:20:03;;;;;;;22.83;20.53;;;;;;;6.78;59.31;99594.47;4977755;28;102835;-63
2022/03/25 01:22:31;;;;;;;21.38;19.17;;;;;;;7.35;58.69;99591.94;4977479;28;103785;-61
2022/03/25 01:25:01;;;;;;;22.80;20.50;;;;;;;6.76;60.18;99593.72;4980111;28;103287;-63
2022/03/25 01:27:29;;;;;;;21.73;19.45;;;;;;;7.18;59.08;99594.47;4978335;28;103230;-61
2022/03/25 01:29:57;;;;;;;22.07;19.83;;;;;;;6.97;59.96;99591.00;4978074;28;102777;-62
2022/03/25 01:32:25;;;;;;;21.07;18.97;;;;;;;7.46;57.93;99587.03;4978510;28;104399;-62
2022/03/25 01:34:53;;;;;;;19.92;18.02;;;;;;;7.74;57.10;99589.25;4975688;28;103934;-62
2022/03/25 01:37:23;;;;;;;21.65;19.65;;;;;;;7.37;58.21;99595.34;4978499;28;103173;-62
2022/03/25 01:39:51;;;;;;;21.33;19.27;;;;;;;7.56;57.81;99596.19;4976596;28;102665;-63
2022/03/25 01:42:31;;;;;;;22.00;19.90;;;;;;;7.24;58.88;99594.16;4977427;28;103177;-63
2022/03/25 01:44:59;;;;;;;20.80;18.83;;;;;;;7.46;58.55;99594.94;4976408;28;104198;-62
2022/03/25 01:47:29;;;;;;;20.75;18.70;;;;;;;7.62;57.39;99594.22;4981095;28;103153;-63
2022/03/25 01:49:58;;;;;;;20.25;18.45;;;;;;;7.69;57.58;99593.00;4975404;28;102575;-62
2022/03/25 01:52:29;;;;;;;21.55;19.35;;;;;;;7.25;58.43;99595.03;4980180;28;103998;-63
2022/03/25 01:55:15;;;;;;;16.65;15.13;;;;;;;7.55;57.93;99589.22;4976867;28;104049;-63
2022/03/25 01:57:45;;;;;;;20.25;18.35;;;;;;;7.42;58.01;99598.59;4980288;28;103229;-63
2022/03/25 02:00:16;;;;;;;20.58;18.40;;;;;;;7.48;57.58;99597.47;4978716;28;102612;-61
2022/03/25 02:02:50;;;;;;;15.45;14.05;;;;;;;7.68;57.29;99596.56;4972588;28;103693;-61
2022/03/25 02:05:19;;;;;;;18.45;16.73;;;;;;;7.68;56.63;99591.28;4976889;28;104089;-61
2022/03/25 02:07:47;;;;;;;20.67;18.67;;;;;;;7.66;57.02;99601.03;4976138;28;103395;-61
2022/03/25 02:10:19;;;;;;;19.60;17.80;;;;;;;7.63;57.52;99595.94;4977787;28;102649;-61
2022/03/25 02:12:51;;;;;;;21.48;19.40;;;;;;;7.42;57.43;99593.34;4975153;28;103434;-61
2022/03/25 02:15:32;;;;;;;22.07;19.80;;;;;;;7.40;58.17;99600.47;4978037;28;105973;-61
2022/03/25 02:18:10;;;;;;;21.40;19.30;;;;;;;7.22;58.37;99603.91;4974489;28;103179;-60
2022/03/25 02:20:39;;;;;;;22.92;20.63;;;;;;;7.02;59.01;99600.47;4976370;28;102707;-61
2022/03/25 02:23:12;;;;;;;22.17;19.95;;;;;;;7.14;59.09;99600.75;4979346;28;103859;-61
2022/03/25 02:25:41;;;;;;;20.63;18.73;;;;;;;7.04;59.49;99607.34;4968229;28;104192;-62
2022/03/25 02:28:11;;;;;;;19.67;17.85;;;;;;;7.28;58.57;99600.16;4977271;28;103892;-62
2022/03/25 02:30:43;;;;;;;21.30;19.30;;;;;;;7.30;58.20;99599.16;4974077;28;103078;-62
2022/03/25 02:33:14;;;;;;;21.73;19.60;;;;;;;7.13;58.52;99601.66;4977930;28;102824;-61
2022/03/25 02:35:44;;;;;;;23.30;21.00;;;;;;;6.44;60.97;99608.19;4979207;28;103142;-62
2022/03/25 02:38:15;;;;;;;22.20;20.02;;;;;;;6.56;61.15;99598.94;4976527;28;103545;-62
2022/03/25 02:40:44;;;;;;;24.13;21.67;;;;;;;6.27;61.86;99602.75;4975756;28;102716;-62
2022/03/25 02:43:13;;;;;;;20.80;18.87;;;;;;;6.86;60.48;99602.88;4973094;28;103994;-61
2022/03/25 02:45:48;;;;;;;20.65;18.63;;;;;;;6.87;60.26;99604.59;4978297;28;104269;-61
2022/03/25 02:48:19;;;;;;;24.10;21.70;;;;;;;6.23;61.78;99604.66;4977777;28;104203;-61
2022/03/25 02:50:47;;;;;;;23.98;21.67;;;;;;;6.15;62.73;99611.13;4977460;28;102879;-64
2022/03/25 02:53:16;;;;;;;21.77;19.67;;;;;;;6.73;60.73;99596.47;4981824;28;102704;-63
2022/03/25 02:55:44;;;;;;;18.53;16.73;;;;;;;7.00;59.63;99597.88;4978288;28;103186;-63
2022/03/25 02:58:12;;;;;;;16.45;14.95;;;;;;;7.16;59.27;99600.72;4981650;28;103229;-63
2022/03/25 03:00:42;;;;;;;19.37;17.57;;;;;;;7.19;58.71;99597.91;4980309;28;102851;-63
2022/03/25 03:03:10;;;;;;;20.08;18.17;;;;;;;7.00;59.82;99596.13;4975515;28;104596;-63
2022/03/25 03:05:38;;;;;;;20.88;18.88;;;;;;;6.68;60.55;99603.69;4980808;28;103446;-62
2022/03/25 03:08:07;;;;;;;20.17;18.27;;;;;;;6.84;59.71;99600.34;4980076;28;103292;-61
2022/03/25 03:10:37;;;;;;;21.60;19.50;;;;;;;6.57;60.78;99604.13;4982699;28;102601;-62
2022/03/25 03:13:05;;;;;;;20.75;18.75;;;;;;;6.60;60.64;99609.25;4983202;28;103699;-63
2022/03/25 03:15:33;;;;;;;18.70;16.90;;;;;;;6.82;60.19;99596.06;4979850;28;103975;-63
2022/03/25 03:18:01;;;;;;;21.30;19.30;;;;;;;6.78;59.78;99605.00;4980620;28;103273;-63
2022/03/25 03:20:30;;;;;;;20.60;18.60;;;;;;;6.82;60.10;99601.31;4979762;28;102650;-62
2022/03/25 03:22:58;;;;;;;22.83;20.52;;;;;;;6.29;61.33;99612.28;4979781;28;102614;-63
2022/03/25 03:25:27;;;;;;;19.95;18.08;;;;;;;6.39;61.95;99603.13;4980905;28;104096;-63
2022/03/25 03:27:56;;;;;;;17.45;15.85;;;;;;;6.63;61.07;99605.63;4980269;28;103186;-62
2022/03/25 03:30:24;;;;;;;21.10;19.00;;;;;;;6.27;62.01;99601.00;4979954;28;102790;-62
2022/03/25 03:32:57;;;;;;;21.80;19.70;;;;;;;5.97;63.10;99604.84;4980801;28;103852;-62
2022/03/25 03:35:28;;;;;;;21.75;19.40;;;;;;;5.87;64.16;99600.88;4980642;28;104126;-62
2022/03/25 03:37:56;;;;;;;21.00;19.00;;;;;;;6.17;62.55;99607.53;4972170;28;102878;-63
2022/03/25 03:40:25;;;;;;;16.23;14.67;;;;;;;6.50;61.70;99599.19;4981289;28;102697;-62
2022/03/25 03:42:53;;;;;;;14.85;13.45;;;;;;;6.68;60.61;99587.94;4979212;28;102838;-62
2022/03/25 03:45:24;;;;;;;21.45;19.23;;;;;;;6.51;60.96;99593.03;4976973;28;105750;-62
2022/03/25 03:47:53;;;;;;;18.98;17.10;;;;;;;6.47;60.97;99594.94;4981138;28;103741;-62
2022/03/25 03:50:21;;;;;;;22.77;20.42;;;;;;;5.42;65.24;99594.75;4977826;28;102574;-63
2022/03/25 03:52:48;;;;;;;22.30;19.90;;;;;;;5.81;64.25;99596.69;4977571;28;102822;-62
2022/03/25 03:55:18;;;;;;;21.57;19.53;;;;;;;6.19;62.72;99589.09;4981656;28;104146;-62
2022/03/25 03:57:46;;;;;;;20.30;18.30;;;;;;;6.29;62.57;99595.66;4980494;28;104142;-62
2022/03/25 04:00:15;;;;;;;20.70;18.17;;;;;;;6.40;61.54;99588.19;4981917;28;102572;-62
2022/03/25 04:02:45;;;;;;;21.43;19.37;;;;;;;6.19;62.58;99589.09;4978768;28;103990;-62
2022/03/25 04:05:14;;;;;;;22.45;20.25;;;;;;;5.83;63.59;99589.63;4977316;28;104080;-62
2022/03/25 04:07:43;;;;;;;16.70;15.18;;;;;;;6.17;62.88;99591.81;4981723;28;103506;-62
2022/03/25 04:10:12;;;;;;;21.10;19.10;;;;;;;6.12;62.21;99593.72;4976723;28;102976;-62
2022/03/25 04:12:41;;;;;;;19.10;17.30;;;;;;;6.20;62.49;99590.81;4979913;28;102665;-61
2022/03/25 04:15:11;;;;;;;22.03;19.83;;;;;;;5.86;63.63;99593.94;4980025;28;103382;-61
2022/03/25 04:17:39;;;;;;;22.70;20.45;;;;;;;5.40;65.20;99593.94;4979232;28;103173;-62
2022/03/25 04:20:10;;;;;;;22.23;20.17;;;;;;;5.37;65.71;99596.66;4978463;28;102741;-62
2022/03/25 04:22:38;;;;;;;23.50;21.20;;;;;;;4.90;67.73;99599.25;4979508;28;102771;-62
2022/03/25 04:25:07;;;;;;;23.35;21.05;;;;;;;5.06;67.12;99592.56;4980419;28;103106;-61
2022/03/25 04:27:46;;;;;;;23.70;21.23;;;;;;;4.97;67.82;99598.09;4979780;28;104306;-62
2022/03/25 04:30:17;;;;;;;24.08;21.52;;;;;;;4.44;69.16;99601.72;4976169;28;103231;-62
2022/03/25 04:32:45;;;;;;;21.58;19.50;;;;;;;4.81;68.53;99599.56;4981256;28;103105;-61
2022/03/25 04:35:15;;;;;;;22.67;20.27;;;;;;;5.07;67.22;99589.03;4979148;28;103378;-61
2022/03/25 04:37:44;;;;;;;22.20;19.80;;;;;;;5.34;66.22;99596.78;4978257;28;103207;-62
2022/03/25 04:40:13;;;;;;;23.10;20.75;;;;;;;5.38;65.33;99598.38;4979969;28;102633;-61
2022/03/25 04:42:41;;;;;;;21.58;19.38;;;;;;;5.17;66.02;99595.63;4978394;28;103568;-61
2022/03/25 04:45:10;;;;;;;19.10;17.30;;;;;;;5.49;65.58;99591.84;4978540;28;104333;-62
2022/03/25 04:47:38;;;;;;;16.33;14.75;;;;;;;5.86;63.50;99596.56;4982593;28;103174;-61
2022/03/25 04:50:07;;;;;;;21.33;19.33;;;;;;;5.84;62.99;99607.06;4971145;28;102706;-61
2022/03/25 04:52:36;;;;;;;21.30;19.15;;;;;;;5.87;63.11;99603.50;4979415;28;104131;-62
2022/03/25 04:55:05;;;;;;;17.55;15.85;;;;;;;5.89;63.14;99600.81;4977843;28;104003;-62
2022/03/25 04:57:33;;;;;;;18.50;16.70;;;;;;;6.00;62.57;99599.50;4978475;28;103222;-63
2022/03/25 05:00:02;;;;;;;18.83;16.98;;;;;;;6.06;62.04;99604.50;4977842;28;102699;-62
2022/03/25 05:02:30;;;;;;;20.92;18.85;;;;;;;5.98;62.00;99601.28;4979086;28;102848;-65
2022/03/25 05:04:58;;;;;;;22.23;19.98;;;;;;;5.65;62.66;99602.56;4977829;28;103729;-64
2022/03/25 05:07:26;;;;;;;21.60;19.33;;;;;;;5.64;63.32;99603.50;4978849;28;104221;-64
2022/03/25 05:09:57;;;;;;;21.83;19.70;;;;;;;5.56;63.48;99608.16;4976554;28;102698;-64
2022/03/25 05:12:25;;;;;;;23.05;20.77;;;;;;;5.17;65.41;99606.13;4977794;28;103798;-64
2022/03/25 05:14:54;;;;;;;23.53;21.03;;;;;;;5.11;65.49;99611.56;4977827;28;103950;-64
2022/03/25 05:17:22;;;;;;;22.67;20.40;;;;;;;5.28;64.97;99601.34;4977741;28;103540;-64
2022/03/25 05:19:50;;;;;;;22.13;19.90;;;;;;;5.37;64.71;99604.53;4977094;28;103298;-63
2022/03/25 05:22:18;;;;;;;21.40;19.15;;;;;;;5.46;64.42;99612.91;4979781;28;104014;-61
2022/03/25 05:24:46;;;;;;;24.20;21.63;;;;;;;4.83;66.62;99610.00;4976134;28;104084;-61
2022/03/25 05:27:16;;;;;;;24.17;21.60;;;;;;;4.36;68.87;99608.97;4978184;28;103293;-60
2022/03/25 05:29:45;;;;;;;25.00;22.45;;;;;;;4.36;69.72;99611.59;4976171;28;102758;-60
2022/03/25 05:32:13;;;;;;;23.40;21.02;;;;;;;4.30;70.68;99617.00;4977981;28;103246;-60
2022/03/25 05:34:44;;;;;;;24.60;21.83;;;;;;;4.19;72.03;99616.50;4975477;28;103172;-61
2022/03/25 05:37:12;;;;;;;22.80;20.40;;;;;;;4.64;70.34;99621.09;4978174;28;103213;-61
2022/03/25 05:39:41;;;;;;;20.95;18.95;;;;;;;5.12;67.87;99615.06;4978165;28;102680;-60
2022/03/25 05:42:13;;;;;;;21.65;19.35;;;;;;;5.32;66.72;99615.19;4970415;28;102735;-60
2022/03/25 05:44:42;;;;;;;20.98;18.80;;;;;;;5.49;66.32;99622.41;4975238;28;104047;-60
2022/03/25 05:47:11;;;;;;;22.30;20.05;;;;;;;5.31;66.55;99623.09;4974544;28;103225;-61
2022/03/25 05:49:39;;;;;;;19.05;17.25;;;;;;;5.57;65.79;99621.22;4973118;28;103147;-60
2022/03/25 05:52:08;;;;;;;22.83;20.50;;;;;;;5.14;68.17;99627.19;4972397;28;103290;-61
2022/03/25 05:54:36;;;;;;;23.33;21.00;;;;;;;4.80;68.58;99623.19;4976612;28;104422;-61
2022/03/25 05:57:05;;;;;;;21.15;19.05;;;;;;;4.99;69.08;99622.50;4982928;28;103273;-61
2022/03/25 05:59:33;;;;;;;22.63;20.23;;;;;;;4.69;69.52;99632.25;4971788;28;102720;-62
2022/03/25 06:02:03;;;;;;;24.13;21.60;;;;;;;4.67;70.57;99630.59;4974005;28;102934;-61
2022/03/25 06:04:31;;;;;;;20.93;18.93;;;;;;;5.25;68.77;99629.41;4975399;28;103769;-61
2022/03/25 06:06:59;;;;;;;19.90;18.00;;;;;;;5.59;67.39;99629.03;4975036;28;103449;-61
2022/03/25 06:09:27;;;;;;;21.95;19.80;;;;;;;5.57;67.33;99631.72;4978253;28;102736;-61
2022/03/25 06:11:56;;;;;;;23.17;20.67;;;;;;;5.39;68.98;99628.94;4975832;28;102802;-61
2022/03/25 06:14:25;;;;;;;23.77;21.37;;;;;;;4.64;71.79;99641.16;4971305;28;103301;-62
2022/03/25 06:16:53;;;;;;;25.95;22.23;;;;;;;4.76;71.50;99639.91;4970918;28;103279;-61
2022/03/25 06:19:23;;;;;;;27.90;23.13;;;;;;;4.69;71.27;99641.88;4978473;28;102675;-62
2022/03/25 06:21:51;;;;;;;24.27;21.73;;;;;;;4.91;70.54;99644.63;4974991;28;103805;-62
2022/03/25 06:24:19;;;;;;;34.50;24.40;;;;;;;5.14;69.83;99647.28;4973690;28;104363;-61
2022/03/25 06:26:47;;;;;;;30.55;22.17;;;;;;;5.20;69.92;99653.16;4975187;28;103282;-62
2022/03/25 06:29:16;;;;;;;25.03;21.50;;;;;;;5.29;69.78;99651.97;4972944;28;102863;-62
2022/03/25 06:31:44;;;;;;;24.95;22.25;;;;;;;5.01;70.99;99652.09;4974275;28;103898;-62
2022/03/25 06:34:12;;;;;;;22.60;20.20;;;;;;;5.30;70.06;99653.69;4972922;28;103989;-62
2022/03/25 06:36:44;;;;;;;22.73;20.52;;;;;;;5.73;69.13;99655.56;4978228;28;103194;-62
2022/03/25 06:39:12;;;;;;;22.77;20.58;;;;;;;5.99;68.16;99650.22;4974292;28;102634;-62
2022/03/25 06:41:40;;;;;;;22.35;20.00;;;;;;;6.11;66.83;99657.63;4979526;28;104076;-61
2022/03/25 06:44:09;;;;;;;19.65;17.75;;;;;;;6.64;65.58;99657.25;4974497;28;104125;-61
2022/03/25 06:46:38;;;;;;;19.25;17.45;;;;;;;6.97;64.24;99658.44;4980331;28;104188;-61
2022/03/25 06:49:07;;;;;;;20.67;18.67;;;;;;;7.16;63.69;99659.34;4983345;28;102645;-62
2022/03/25 06:51:36;;;;;;;26.05;21.85;;;;;;;6.53;65.43;99667.31;4978018;28;103938;-61
2022/03/25 06:54:06;;;;;;;23.35;20.95;;;;;;;6.22;67.84;99667.69;4977225;28;103380;-61
2022/03/25 06:56:44;;;;;;;26.00;21.98;;;;;;;6.60;66.33;99671.41;4976485;28;103229;-61
2022/03/25 06:59:12;;;;;;;19.20;17.38;;;;;;;7.39;64.07;99667.09;4975579;28;102525;-61
2022/03/25 07:01:41;;;;;;;21.65;19.42;;;;;;;7.64;63.00;99661.59;4976608;28;102860;-61
2022/03/25 07:04:10;;;;;;;20.20;18.20;;;;;;;8.00;61.91;99664.34;4975239;28;103596;-62
2022/03/25 07:06:38;;;;;;;19.85;17.95;;;;;;;8.26;60.20;99661.31;4974334;28;104122;-59
2022/03/25 07:09:09;;;;;;;21.30;19.17;;;;;;;8.17;60.66;99664.38;4976907;28;102690;-60
2022/03/25 07:11:38;;;;;;;24.60;21.30;;;;;;;7.83;61.59;99666.88;4972810;28;103429;-59
2022/03/25 07:14:06;;;;;;;20.67;18.67;;;;;;;8.51;59.32;99666.28;4974525;28;103249;-58
2022/03/25 07:16:34;;;;;;;22.55;20.38;;;;;;;8.65;58.83;99664.66;4975191;28;103202;-58
2022/03/25 07:19:02;;;;;;;20.02;18.02;;;;;;;9.09;58.41;99673.00;4976018;28;102675;-58
2022/03/25 07:21:30;;;;;;;21.47;19.33;;;;;;;9.25;57.54;99679.19;4978454;28;103836;-58
2022/03/25 07:23:58;;;;;;;25.20;22.20;;;;;;;8.35;58.81;99681.97;4978066;28;104083;-60
2022/03/25 07:26:28;;;;;;;25.93;23.00;;;;;;;8.10;59.16;99684.03;4976927;28;103168;-59
2022/03/25 07:28:56;;;;;;;23.17;20.88;;;;;;;8.96;58.89;99684.22;4971765;28;103716;-59
2022/03/25 07:31:28;;;;;;;26.75;23.67;;;;;;;9.10;57.38;99687.00;4975482;28;104121;-59
2022/03/25 07:33:56;;;;;;;26.23;22.65;;;;;;;7.70;60.84;99684.13;4973771;28;103688;-59
2022/03/25 07:36:24;;;;;;;24.77;21.95;;;;;;;8.34;58.98;99685.53;4973146;28;103179;-59
2022/03/25 07:38:52;;;;;;;30.60;23.58;;;;;;;8.14;60.32;99680.31;4976250;28;102865;-59
2022/03/25 07:41:23;;;;;;;23.08;20.77;;;;;;;9.31;58.15;99676.25;4982218;28;103734;-59
2022/03/25 07:43:53;;;;;;;22.80;20.60;;;;;;;10.12;55.35;99680.66;4977170;28;104425;-60
2022/03/25 07:46:23;;;;;;;25.33;22.15;;;;;;;10.33;53.63;99683.94;4982983;28;103195;-60
2022/03/25 07:48:51;;;;;;;25.33;22.63;;;;;;;10.70;53.60;99683.56;4982762;28;102699;-59
2022/03/25 07:51:20;;;;;;;21.95;19.67;;;;;;;11.32;51.62;99682.50;4980821;28;102807;-59
2022/03/25 07:53:48;;;;;;;24.15;21.60;;;;;;;10.97;52.40;99686.41;4981284;28;103775;-60
2022/03/25 07:56:16;;;;;;;27.08;23.05;;;;;;;10.31;52.94;99688.44;4981842;28;103321;-58
2022/03/25 08:35:36;;;;;;;27.23;24.27;;;;;;;15.34;43.84;99679.69;4973997;28;103977;-58
2022/03/25 08:42:29;;;;;;;28.83;25.70;;;;;;;14.38;43.95;99673.56;4976453;28;103056;-60
2022/03/25 08:44:57;;;;;;;28.23;25.23;;;;;;;13.78;44.73;99678.75;4976316;28;103430;-59
2022/03/25 08:47:25;;;;;;;27.97;24.63;;;;;;;14.72;43.40;99679.09;4990479;28;104522;-58
2022/03/25 08:49:53;;;;;;;28.10;25.20;;;;;;;14.46;43.75;99673.88;4973023;28;103691;-58
2022/03/25 08:52:25;;;;;;;28.58;25.50;;;;;;;15.76;42.20;99670.22;4980273;28;103203;-60
2022/03/25 08:54:53;;;;;;;29.33;25.77;;;;;;;15.08;41.48;99665.69;4981989;28;102716;-59
2022/03/25 08:57:21;;;;;;;29.65;26.40;;;;;;;15.58;42.79;99669.81;4980269;28;104542;-59
2022/03/25 08:59:49;;;;;;;30.23;27.05;;;;;;;14.82;41.36;99677.47;4978562;28;104033;-60
2022/03/25 09:02:17;;;;;;;30.60;27.17;;;;;;;15.97;41.95;99666.72;4981881;28;103653;-60
2022/03/25 09:04:46;;;;;;;30.73;27.65;;;;;;;16.73;39.25;99672.06;4979974;28;103088;-60
2022/03/25 09:07:14;;;;;;;30.15;27.05;;;;;;;16.32;40.13;99674.56;4979185;28;103690;-59
2022/03/25 09:09:44;;;;;;;31.65;28.27;;;;;;;16.47;39.86;99664.47;4978429;28;103880;-59
2022/03/25 09:12:12;;;;;;;29.45;26.58;;;;;;;17.47;38.02;99670.28;4977666;28;104138;-58
2022/03/25 09:14:40;;;;;;;30.60;27.43;;;;;;;17.02;38.25;99663.47;4980386;28;103360;-60
2022/03/25 09:17:09;;;;;;;29.85;26.85;;;;;;;17.43;39.25;99663.50;4981043;28;103198;-58
2022/03/25 09:19:37;;;;;;;30.48;27.08;;;;;;;17.99;37.33;99663.13;4981013;28;104197;-59
2022/03/25 09:22:06;;;;;;;32.10;28.52;;;;;;;17.46;38.88;99657.88;4977994;28;103232;-59
2022/03/25 09:24:37;;;;;;;30.07;27.20;;;;;;;18.28;37.11;99666.75;4978364;28;103064;-60
2022/03/25 09:27:06;;;;;;;31.90;28.50;;;;;;;18.20;36.73;99666.56;4977101;28;103106;-61
2022/03/25 09:29:34;;;;;;;29.55;26.75;;;;;;;18.07;36.28;99657.94;4979893;28;104026;-58
2022/03/25 09:32:02;;;;;;;30.60;27.55;;;;;;;18.50;36.07;99666.53;4971342;28;103182;-59
2022/03/25 09:37:35;;;;;;;30.23;27.30;;;;;;;18.95;35.49;99661.53;4977352;28;102632;-59
2022/03/25 09:40:08;;;;;;;28.88;26.05;;;;;;;19.26;35.40;99660.38;4978462;28;103764;-58
2022/03/25 09:42:38;;;;;;;34.92;29.90;;;;;;;18.39;35.22;99670.16;4977857;28;103212;-59
2022/03/25 09:45:08;;;;;;;33.13;29.65;;;;;;;16.74;37.42;99668.44;4976108;28;102617;-58
2022/03/25 09:47:37;;;;;;;30.50;27.60;;;;;;;18.75;34.90;99671.38;4978738;28;104260;-59
2022/03/25 09:50:08;;;;;;;34.33;29.63;;;;;;;18.25;34.87;99673.22;4961267;28;105274;-59
2022/03/25 09:52:37;;;;;;;33.17;29.77;;;;;;;18.08;35.54;99665.81;4974655;28;103178;-60
2022/03/25 09:55:27;;;;;;;33.88;30.50;;;;;;;17.85;35.57;99670.50;4977930;28;102675;-59
2022/03/25 09:57:57;;;;;;;33.57;30.10;;;;;;;17.89;36.51;99663.94;4961710;28;103119;-62
2022/03/25 10:00:25;;;;;;;32.80;29.63;;;;;;;17.15;37.41;99669.50;4973311;28;104166;-58
2022/03/25 10:02:54;;;;;;;32.65;29.45;;;;;;;18.25;36.79;99661.66;4973092;28;103309;-61
2022/03/25 10:05:23;;;;;;;33.47;29.98;;;;;;;17.06;36.51;99665.78;4956596;28;103311;-61
2022/03/25 10:07:54;;;;;;;32.08;28.95;;;;;;;17.68;35.56;99660.47;4979556;28;103811;-59
2022/03/25 10:10:26;;;;;;;31.40;28.40;;;;;;;17.82;36.59;99654.72;4957238;28;104446;-60
2022/03/25 10:13:02;;;;;;;30.23;27.42;;;;;;;19.38;34.43;99647.69;4978138;28;103214;-58
2022/03/25 10:15:32;;;;;;;33.43;30.23;;;;;;;19.13;36.45;99646.47;4977091;28;102835;-58
2022/03/25 10:18:03;;;;;;;32.05;28.83;;;;;;;19.51;34.20;99642.88;4978731;28;104045;-61
2022/03/25 10:20:33;;;;;;;32.10;29.00;;;;;;;19.45;32.81;99638.13;4975665;28;103708;-61
2022/03/25 10:23:10;;;;;;;32.22;29.10;;;;;;;18.01;34.77;99651.31;4979072;28;103240;-61
2022/03/25 10:25:47;;;;;;;32.50;29.30;;;;;;;18.94;33.83;99644.66;4979255;28;102990;-61
2022/03/25 10:28:23;;;;;;;31.43;28.33;;;;;;;18.22;34.28;99646.72;4976971;28;102922;-61
2022/03/25 10:30:52;;;;;;;30.38;27.40;;;;;;;19.37;32.74;99646.03;4978055;28;103657;-61
2022/03/25 10:33:25;;;;;;;29.80;27.00;;;;;;;19.72;32.85;99638.19;4961349;28;103221;-59
2022/03/25 10:36:25;;;;;;;29.38;26.63;;;;;;;20.30;31.39;99643.31;4959625;28;102695;-58
2022/03/25 10:38:57;;;;;;;31.20;28.08;;;;;;;19.05;32.56;99638.28;4977741;28;103719;-61
2022/03/25 10:41:36;;;;;;;31.88;28.85;;;;;;;19.24;32.55;99640.09;4966728;28;104769;-61
2022/03/25 10:44:08;;;;;;;31.70;28.50;;;;;;;17.50;33.36;99642.44;4976821;28;103225;-61
2022/03/25 10:46:38;;;;;;;28.80;26.17;;;;;;;18.57;32.76;99634.75;4974084;28;102684;-61
2022/03/25 10:49:09;;;;;;;30.33;27.42;;;;;;;18.87;32.69;99632.78;4961231;28;102727;-58
2022/03/25 10:51:39;;;;;;;30.25;27.15;;;;;;;18.11;33.71;99633.47;4958587;28;104075;-61
2022/03/25 10:54:09;;;;;;;32.78;29.38;;;;;;;17.61;33.65;99634.38;4978026;28;103188;-61
2022/03/25 10:56:45;;;;;;;30.37;27.47;;;;;;;19.03;32.81;99633.06;4974409;28;102613;-59
2022/03/25 10:59:23;;;;;;;27.73;25.00;;;;;;;20.21;31.65;99624.41;4977537;28;102767;-59
2022/03/25 11:01:56;;;;;;;29.30;26.50;;;;;;;19.83;31.37;99621.06;4959975;28;104285;-61
2022/03/25 11:04:25;;;;;;;30.55;27.58;;;;;;;20.36;31.37;99621.25;4974472;28;103280;-61
2022/03/25 11:06:54;;;;;;;29.15;26.15;;;;;;;20.66;30.74;99615.56;4976904;28;102665;-61
2022/03/25 11:09:23;;;;;;;29.25;26.42;;;;;;;20.83;30.52;99612.84;4977394;28;103043;-61
2022/03/25 11:11:58;;;;;;;30.85;27.88;;;;;;;18.70;32.53;99609.41;4974602;28;105105;-62
2022/03/25 11:14:28;;;;;;;28.55;25.85;;;;;;;20.60;30.73;99616.16;4962322;28;103135;-59
2022/03/25 11:16:58;;;;;;;28.83;25.80;;;;;;;21.29;29.45;99610.94;4975555;28;103229;-59
2022/03/25 11:19:27;;;;;;;27.52;24.98;;;;;;;20.81;28.43;99604.13;4981355;28;102644;-59
2022/03/25 11:21:57;;;;;;;28.42;25.83;;;;;;;19.19;29.19;99604.88;4980876;28;103321;-59
2022/03/25 11:24:38;;;;;;;29.73;27.02;;;;;;;19.16;30.01;99600.63;4978906;28;103198;-59
2022/03/25 11:27:09;;;;;;;27.48;25.08;;;;;;;20.34;30.59;99605.31;4962842;28;102692;-59
2022/03/25 11:29:44;;;;;;;28.42;25.75;;;;;;;19.33;30.22;99604.41;4963385;28;102783;-58
2022/03/25 11:32:14;;;;;;;29.23;26.45;;;;;;;19.57;29.74;99599.44;4978786;28;103223;-59
2022/03/25 11:34:44;;;;;;;27.30;24.88;;;;;;;21.23;29.57;99593.59;4981705;28;103209;-58
2022/03/25 11:37:18;;;;;;;30.60;27.87;;;;;;;20.37;29.38;99593.44;4980368;28;102836;-59
2022/03/25 11:39:46;;;;;;;30.48;27.58;;;;;;;20.10;30.04;99592.44;4980718;28;103000;-59
2022/03/25 11:42:39;;;;;;;32.83;29.50;;;;;;;19.79;30.64;99582.16;4980864;28;103102;-59
2022/03/25 11:45:35;;;;;;;31.40;28.45;;;;;;;18.63;31.66;99586.88;4980471;28;103206;-59
2022/03/25 11:48:36;;;;;;;31.23;27.98;;;;;;;18.61;30.07;99582.66;4956747;28;102687;-59
2022/03/25 11:51:26;;;;;;;32.00;28.90;;;;;;;19.00;30.97;99579.78;4976035;28;103259;-64
2022/03/25 11:53:55;;;;;;;31.65;28.63;;;;;;;20.57;29.81;99570.84;4976281;28;103794;-59
2022/03/25 11:56:23;;;;;;;31.95;28.88;;;;;;;19.53;30.38;99571.25;4977204;28;103251;-59
2022/03/25 11:59:00;;;;;;;29.70;26.90;;;;;;;20.72;30.58;99571.97;4976991;28;102727;-64
2022/03/25 12:01:32;;;;;;;27.83;25.13;;;;;;;21.50;29.36;99567.56;4971515;28;102737;-63
2022/03/25 12:04:01;;;;;;;30.70;27.70;;;;;;;20.36;28.73;99571.13;4977522;28;104012;-62
2022/03/25 12:06:30;;;;;;;30.80;27.90;;;;;;;20.85;28.47;99567.06;4977150;28;103442;-62
2022/03/25 12:09:01;;;;;;;30.90;28.00;;;;;;;19.96;29.50;99562.56;4973456;28;102653;-61
2022/03/25 12:11:51;;;;;;;30.02;27.15;;;;;;;21.13;29.27;99559.75;4975854;28;103633;-59